Time;durP1;ratioP1;P1;durP2;ratioP2;P2;SDS_P1;SDS_P2;PMS_P1;PMS_P2;Temp;Humidity;BMP_temperature;BMP_pressure;BME280_temperature;BME280_humidity;BME280_pressure;Samples;Min_cycle;Max_cycle;Signal;HPM_P1;HPM_P2
2022/12/18 00:01:53;;;;;;;64.85;30.20;;;;;;;-5.75;64.88;101297.19;10370344;28;20050;-78
2022/12/18 00:06:58;;;;;;;79.07;34.05;;;;;;;-5.70;64.52;101285.41;10352284;28;20060;-78
2022/12/18 00:12:00;;;;;;;69.80;30.83;;;;;;;-5.99;64.90;101289.72;10366578;28;20049;-77
2022/12/18 00:17:16;;;;;;;64.85;28.77;;;;;;;-5.97;64.88;101305.91;10351137;28;20061;-77
2022/12/18 00:22:18;;;;;;;80.15;32.72;;;;;;;-5.99;64.80;101291.41;10369525;28;20049;-77
2022/12/18 00:27:19;;;;;;;80.70;31.92;;;;;;;-6.24;64.71;101297.47;10359730;28;20881;-77
2022/12/18 00:32:21;;;;;;;66.70;30.10;;;;;;;-6.12;65.12;101304.59;10370113;28;20823;-77
2022/12/18 00:37:24;;;;;;;69.07;29.02;;;;;;;-6.12;64.71;101300.38;10372812;28;20061;-79
2022/12/18 00:47:46;;;;;;;67.47;28.98;;;;;;;-6.26;64.44;101289.81;10372443;28;20054;-78
2022/12/18 00:52:48;;;;;;;73.38;30.23;;;;;;;-6.27;64.83;101303.34;10366627;28;20076;-78
2022/12/18 00:57:52;;;;;;;65.28;30.08;;;;;;;-6.18;64.82;101310.38;10365969;28;20562;-77
2022/12/18 01:02:53;;;;;;;71.32;30.23;;;;;;;-6.53;64.38;101323.72;10369640;28;20954;-78
2022/12/18 01:07:56;;;;;;;68.35;29.17;;;;;;;-6.58;64.79;101312.56;10352482;28;20561;-77
2022/12/18 01:12:57;;;;;;;73.78;30.73;;;;;;;-6.50;64.69;101317.03;10350347;28;20510;-78
2022/12/18 01:17:59;;;;;;;67.05;28.85;;;;;;;-6.54;64.72;101315.22;10349802;28;20053;-78
2022/12/18 01:23:02;;;;;;;65.85;29.50;;;;;;;-6.36;64.87;101331.06;10366491;28;20066;-77
2022/12/18 01:28:10;;;;;;;68.65;28.60;;;;;;;-6.41;64.60;101332.59;10350752;28;20061;-78
2022/12/18 01:33:11;;;;;;;71.22;30.20;;;;;;;-6.37;64.50;101318.28;10368728;28;20060;-77
2022/12/18 01:38:13;;;;;;;64.60;28.15;;;;;;;-6.27;64.54;101318.63;10367556;28;20061;-77
2022/12/18 01:43:15;;;;;;;66.57;28.83;;;;;;;-6.50;64.00;101309.41;10353162;28;20045;-77
2022/12/18 01:48:16;;;;;;;60.67;28.13;;;;;;;-6.68;64.51;101321.56;10368452;28;20506;-77
2022/12/18 01:53:21;;;;;;;63.08;27.13;;;;;;;-6.63;64.29;101332.75;10353388;28;20056;-78
2022/12/18 01:58:48;;;;;;;59.03;26.42;;;;;;;-6.54;64.47;101334.75;10369684;28;20053;-78
2022/12/18 02:03:51;;;;;;;63.25;27.70;;;;;;;-6.52;64.23;101325.47;10350851;28;20046;-78
2022/12/18 02:09:05;;;;;;;64.38;28.83;;;;;;;-6.60;64.00;101325.22;10371578;28;21066;-78
2022/12/18 02:14:42;;;;;;;66.15;28.27;;;;;;;-6.69;63.49;101307.13;10368835;28;20081;-78
2022/12/18 02:19:56;;;;;;;61.10;28.38;;;;;;;-6.74;63.78;101302.69;10363823;28;20064;-78
2022/12/18 02:25:21;;;;;;;67.13;28.75;;;;;;;-6.59;63.93;101308.28;10370392;28;20064;-77
2022/12/18 02:30:23;;;;;;;61.72;26.92;;;;;;;-6.61;63.70;101297.19;10354088;28;20060;-78
2022/12/18 02:35:29;;;;;;;71.57;28.33;;;;;;;-6.75;63.85;101296.78;10366158;28;20053;-77
2022/12/18 02:40:31;;;;;;;65.13;28.50;;;;;;;-6.69;63.97;101302.03;10368068;28;20054;-77
2022/12/18 02:45:33;;;;;;;62.22;26.55;;;;;;;-6.62;63.89;101305.66;10374609;28;20045;-78
2022/12/18 02:50:43;;;;;;;74.78;29.30;;;;;;;-6.46;63.51;101303.59;10355299;28;20143;-77
2022/12/18 02:56:11;;;;;;;66.05;27.50;;;;;;;-6.66;63.35;101308.91;10376039;28;20174;-77
2022/12/18 03:01:24;;;;;;;61.22;26.67;;;;;;;-6.99;63.77;101307.84;10375201;28;20059;-78
2022/12/18 03:06:43;;;;;;;66.43;27.73;;;;;;;-6.90;63.89;101311.53;10382326;28;20107;-77
2022/12/18 03:17:20;;;;;;;68.13;28.30;;;;;;;-6.96;63.34;101301.16;10385304;28;20439;-77
2022/12/18 03:22:24;;;;;;;59.63;26.17;;;;;;;-7.00;63.35;101306.97;10364934;28;20049;-78
2022/12/18 03:27:29;;;;;;;69.05;27.08;;;;;;;-7.14;64.00;101305.66;10373529;28;20483;-78
2022/12/18 03:38:53;;;;;;;61.85;25.98;;;;;;;-7.27;63.41;101283.16;10379354;28;20033;-77
2022/12/18 03:44:28;;;;;;;59.78;26.63;;;;;;;-7.26;63.68;101301.03;10379661;28;20063;-78
2022/12/18 03:50:03;;;;;;;59.10;25.27;;;;;;;-7.11;63.51;101291.34;10382247;28;20092;-77
2022/12/18 03:55:12;;;;;;;62.47;25.38;;;;;;;-7.08;63.60;101288.94;10362635;28;20068;-78
2022/12/18 04:00:17;;;;;;;57.10;25.02;;;;;;;-7.23;63.08;101285.88;10362184;28;20049;-78
2022/12/18 04:05:21;;;;;;;68.28;27.48;;;;;;;-7.39;63.42;101281.09;10373225;28;20116;-77
2022/12/18 04:10:23;;;;;;;65.13;27.67;;;;;;;-7.39;63.63;101276.00;10369425;28;20583;-78
2022/12/18 04:15:25;;;;;;;56.33;24.75;;;;;;;-7.30;63.57;101266.16;10370994;28;20061;-78
2022/12/18 04:20:26;;;;;;;58.20;25.02;;;;;;;-7.23;63.16;101263.00;10373362;28;20060;-78
2022/12/18 04:25:28;;;;;;;57.92;24.85;;;;;;;-7.36;62.90;101265.97;10357338;28;20589;-77
2022/12/18 04:30:30;;;;;;;53.17;24.58;;;;;;;-7.70;63.10;101260.53;10370082;28;20050;-77
2022/12/18 04:35:32;;;;;;;55.13;23.90;;;;;;;-7.88;62.99;101267.56;10372218;28;20057;-77
2022/12/18 04:40:35;;;;;;;52.47;23.73;;;;;;;-8.11;63.21;101273.50;10355387;28;20058;-77
2022/12/18 04:45:37;;;;;;;52.08;24.52;;;;;;;-8.29;63.22;101282.97;10374642;28;20252;-77
2022/12/18 04:50:38;;;;;;;55.30;24.77;;;;;;;-8.49;63.33;101286.41;10372835;28;20057;-77
2022/12/18 04:55:41;;;;;;;58.35;24.25;;;;;;;-8.58;63.53;101288.63;10373142;28;20053;-77
2022/12/18 05:00:43;;;;;;;50.35;23.25;;;;;;;-8.67;63.47;101280.66;10372054;28;20069;-76
2022/12/18 05:05:44;;;;;;;52.58;23.33;;;;;;;-8.78;63.49;101286.16;10377384;28;20050;-77
2022/12/18 05:10:46;;;;;;;58.10;25.60;;;;;;;-8.89;63.43;101284.03;10374570;28;20066;-77
2022/12/18 05:15:52;;;;;;;51.25;23.98;;;;;;;-9.01;63.39;101292.00;10372611;28;20507;-77
2022/12/18 05:20:54;;;;;;;52.05;24.17;;;;;;;-9.10;63.64;101296.69;10366893;28;20058;-77
2022/12/18 05:25:59;;;;;;;55.28;24.70;;;;;;;-9.05;63.50;101287.63;10370431;28;20058;-79
2022/12/18 05:31:02;;;;;;;51.80;23.63;;;;;;;-9.16;63.48;101282.91;10373114;28;20049;-78
2022/12/18 05:36:07;;;;;;;58.58;24.55;;;;;;;-9.35;63.46;101273.69;10371743;28;20064;-78
2022/12/18 05:41:09;;;;;;;55.92;24.85;;;;;;;-9.45;63.55;101279.19;10352367;28;20068;-78
2022/12/18 05:46:16;;;;;;;58.90;26.05;;;;;;;-9.56;63.51;101279.53;10356334;28;20060;-79
2022/12/18 05:51:19;;;;;;;55.08;25.05;;;;;;;-9.65;63.70;101285.09;10369677;28;20057;-79
2022/12/18 05:56:22;;;;;;;49.45;22.83;;;;;;;-9.73;63.64;101281.38;10371290;28;20053;-78
2022/12/18 06:01:26;;;;;;;56.05;23.73;;;;;;;-9.78;63.86;101276.09;10370533;28;20058;-78
2022/12/18 06:06:28;;;;;;;54.97;23.67;;;;;;;-9.90;64.00;101293.28;10354306;28;20057;-79
2022/12/18 06:11:30;;;;;;;56.75;24.80;;;;;;;-9.88;64.05;101275.66;10360414;28;20073;-78
2022/12/18 06:16:32;;;;;;;58.22;24.20;;;;;;;-9.82;64.28;101303.75;10372879;28;20061;-79
2022/12/18 06:21:34;;;;;;;58.65;24.25;;;;;;;-9.60;64.14;101298.81;10381242;28;20066;-78
2022/12/18 06:26:38;;;;;;;51.58;23.38;;;;;;;-9.45;63.93;101298.59;10376482;28;20061;-78
2022/12/18 06:31:40;;;;;;;46.83;22.55;;;;;;;-9.61;63.05;101303.00;10376769;28;20054;-76
2022/12/18 06:36:42;;;;;;;55.58;24.08;;;;;;;-9.77;63.42;101315.81;10361457;28;20065;-78
2022/12/18 06:41:44;;;;;;;52.00;23.27;;;;;;;-9.63;63.49;101313.88;10379035;28;20061;-78
2022/12/18 06:46:46;;;;;;;48.97;22.58;;;;;;;-9.56;63.14;101320.94;10375352;28;20508;-78
2022/12/18 06:51:47;;;;;;;50.70;23.65;;;;;;;-9.53;63.00;101321.03;10377551;28;20410;-78
2022/12/18 06:56:49;;;;;;;51.72;22.85;;;;;;;-9.55;62.73;101325.19;10370953;28;20053;-78
2022/12/18 07:01:51;;;;;;;52.80;24.13;;;;;;;-9.58;63.02;101326.72;10366307;28;20065;-78
2022/12/18 07:06:53;;;;;;;50.13;23.20;;;;;;;-9.58;63.02;101322.53;10368625;28;20057;-78
2022/12/18 07:11:55;;;;;;;52.22;23.42;;;;;;;-9.54;62.82;101326.94;10352103;28;20065;-78
2022/12/18 07:16:58;;;;;;;51.85;23.50;;;;;;;-9.52;62.78;101312.66;10360434;28;20972;-78
2022/12/18 07:22:01;;;;;;;52.35;24.27;;;;;;;-9.56;62.47;101308.28;10354109;28;20918;-78
2022/12/18 07:27:03;;;;;;;55.13;21.63;;;;;;;-9.56;62.71;101315.00;10371746;28;20434;-78
2022/12/18 07:32:33;;;;;;;51.28;22.70;;;;;;;-9.54;61.69;101313.41;10348578;28;20057;-77
2022/12/18 07:37:35;;;;;;;46.70;21.63;;;;;;;-9.80;62.05;101315.66;10364864;28;20503;-78
2022/12/18 07:42:37;;;;;;;46.80;22.15;;;;;;;-9.91;62.46;101327.00;10371012;28;20061;-78
2022/12/18 07:47:41;;;;;;;55.03;23.45;;;;;;;-9.83;62.49;101327.31;10369154;28;20999;-78
2022/12/18 07:52:42;;;;;;;53.95;23.20;;;;;;;-9.59;62.49;101330.06;10370096;28;20069;-78
2022/12/18 07:57:45;;;;;;;51.63;24.95;;;;;;;-9.44;62.12;101326.50;10363986;28;20427;-77
2022/12/18 08:02:53;;;;;;;51.63;23.98;;;;;;;-9.30;61.94;101325.41;10365974;28;20080;-77
2022/12/18 08:07:56;;;;;;;52.17;24.17;;;;;;;-9.24;62.10;101315.53;10349484;28;20860;-78
2022/12/18 08:12:58;;;;;;;49.60;23.65;;;;;;;-9.15;61.96;101315.06;10349610;28;20929;-78
2022/12/18 08:18:05;;;;;;;56.60;23.83;;;;;;;-9.06;62.02;101318.81;10365358;28;20053;-78
2022/12/18 08:23:14;;;;;;;48.88;22.20;;;;;;;-9.02;61.71;101322.34;10364677;28;20054;-77
2022/12/18 08:28:16;;;;;;;53.47;24.02;;;;;;;-8.82;61.82;101307.13;10365646;28;20523;-77
2022/12/18 08:33:18;;;;;;;49.63;22.58;;;;;;;-8.61;61.61;101293.56;10366618;28;20111;-78
2022/12/18 08:38:19;;;;;;;52.85;23.20;;;;;;;-8.34;61.59;101272.66;10365180;28;20493;-78
2022/12/18 08:48:43;;;;;;;53.13;23.30;;;;;;;-8.32;61.15;101267.63;10361792;28;20065;-78
2022/12/18 08:53:46;;;;;;;51.95;22.92;;;;;;;-8.25;61.17;101262.81;10366630;28;20053;-77
2022/12/18 08:58:47;;;;;;;51.10;24.35;;;;;;;-8.17;60.98;101265.66;10346633;28;20062;-78
2022/12/18 09:03:50;;;;;;;50.47;23.70;;;;;;;-8.01;61.01;101273.03;10344292;28;20062;-76
2022/12/18 09:08:52;;;;;;;49.92;23.30;;;;;;;-7.94;60.93;101273.28;10363581;28;20049;-76
2022/12/18 09:13:56;;;;;;;44.72;21.73;;;;;;;-7.88;61.04;101280.25;10361573;28;20062;-77
2022/12/18 09:18:59;;;;;;;48.90;23.55;;;;;;;-7.84;60.85;101292.22;10352072;28;20838;-77
2022/12/18 09:24:02;;;;;;;48.28;22.88;;;;;;;-7.76;61.16;101295.03;10362753;28;20053;-77
2022/12/18 09:29:04;;;;;;;47.58;23.65;;;;;;;-7.53;60.97;101289.06;10352378;28;20539;-77
2022/12/18 09:34:07;;;;;;;51.30;23.67;;;;;;;-7.19;60.83;101272.44;10367387;28;20064;-77
2022/12/18 09:39:09;;;;;;;45.53;22.60;;;;;;;-6.98;60.48;101271.41;10347955;28;20068;-77
2022/12/18 09:44:18;;;;;;;79.18;36.22;;;;;;;-6.75;60.26;101275.53;10347471;28;20053;-77
2022/12/18 09:49:25;;;;;;;79.28;35.42;;;;;;;-6.62;60.49;101275.97;10365655;28;20068;-77
2022/12/18 09:54:35;;;;;;;90.72;39.60;;;;;;;-6.52;60.51;101289.84;10362700;28;20054;-77
2022/12/18 10:06:11;;;;;;;48.10;23.90;;;;;;;-5.97;59.70;101256.66;10370873;28;20487;-77
2022/12/18 10:11:40;;;;;;;39.85;20.98;;;;;;;-5.79;59.17;101254.63;10374747;28;20056;-77
2022/12/18 10:16:54;;;;;;;56.45;27.00;;;;;;;-5.80;59.76;101248.66;10380752;28;20049;-77
2022/12/18 10:22:11;;;;;;;97.00;39.20;;;;;;;-5.65;59.86;101249.06;10370755;28;20053;-77
2022/12/18 10:27:15;;;;;;;59.92;27.30;;;;;;;-5.34;59.73;101244.75;10378965;28;20045;-77
2022/12/18 10:32:20;;;;;;;48.03;23.60;;;;;;;-5.19;59.49;101242.56;10376686;28;20150;-77
2022/12/18 10:37:25;;;;;;;38.72;20.75;;;;;;;-5.01;59.16;101237.91;10377248;28;20049;-77
2022/12/18 10:42:27;;;;;;;36.75;20.52;;;;;;;-5.09;59.05;101229.22;10349203;28;20144;-77
2022/12/18 10:47:28;;;;;;;37.53;19.92;;;;;;;-5.16;59.18;101232.47;10377765;28;20046;-77
2022/12/18 10:52:30;;;;;;;40.45;22.02;;;;;;;-5.07;59.18;101225.00;10358657;28;20045;-76
2022/12/18 10:57:41;;;;;;;43.00;21.88;;;;;;;-4.95;58.90;101228.72;10380579;28;20076;-77
2022/12/18 11:02:43;;;;;;;44.65;23.60;;;;;;;-4.82;59.18;101217.09;10374252;28;20061;-77
2022/12/18 11:07:50;;;;;;;39.92;21.55;;;;;;;-4.74;59.02;101210.47;10365302;28;20046;-78
2022/12/18 11:12:53;;;;;;;45.25;23.05;;;;;;;-4.55;59.02;101210.06;10372062;28;20061;-78
2022/12/18 11:17:55;;;;;;;43.60;22.50;;;;;;;-4.50;59.08;101207.63;10355891;28;20053;-78
2022/12/18 11:23:11;;;;;;;47.03;23.10;;;;;;;-4.48;59.20;101196.56;10371015;28;20791;-79
2022/12/18 11:34:30;;;;;;;49.72;24.70;;;;;;;-4.33;59.54;101202.00;10372355;28;20065;-78
2022/12/18 11:39:42;;;;;;;44.90;23.50;;;;;;;-4.20;59.35;101195.47;10366267;28;20046;-78
2022/12/18 11:44:58;;;;;;;43.67;22.77;;;;;;;-4.00;59.43;101197.56;10373612;28;20073;-78
2022/12/18 11:50:02;;;;;;;42.88;22.92;;;;;;;-3.90;59.36;101199.47;10353699;28;20065;-78
2022/12/18 11:55:11;;;;;;;49.20;24.50;;;;;;;-3.74;59.47;101188.69;10355491;28;20052;-79
2022/12/18 12:00:19;;;;;;;46.80;25.20;;;;;;;-3.53;59.19;101190.75;10373008;28;20479;-79
2022/12/18 12:05:51;;;;;;;45.22;25.17;;;;;;;-3.68;59.48;101190.47;10367543;28;20499;-79
2022/12/18 12:11:07;;;;;;;40.90;22.27;;;;;;;-3.56;59.74;101183.03;10356115;28;20057;-78
2022/12/18 12:16:40;;;;;;;46.63;23.88;;;;;;;-3.48;58.66;101180.59;10368784;28;20054;-78
2022/12/18 12:22:17;;;;;;;43.05;24.48;;;;;;;-3.60;59.63;101168.47;10367678;28;20057;-79
2022/12/18 12:27:33;;;;;;;42.47;23.63;;;;;;;-3.38;59.51;101159.44;10360895;28;20046;-78
2022/12/18 12:32:49;;;;;;;45.85;24.70;;;;;;;-3.23;59.52;101163.13;10353031;28;20480;-78
2022/12/18 12:38:06;;;;;;;53.55;25.80;;;;;;;-3.03;59.15;101164.28;10364973;28;20046;-78
2022/12/18 12:43:44;;;;;;;43.47;24.27;;;;;;;-2.87;58.79;101175.56;10363130;28;20086;-78
2022/12/18 12:49:15;;;;;;;49.17;25.98;;;;;;;-2.78;59.10;101178.28;10347948;28;20075;-78
2022/12/18 12:54:24;;;;;;;45.28;24.90;;;;;;;-2.68;59.19;101157.09;10347069;28;20045;-78
2022/12/18 12:59:48;;;;;;;50.20;26.83;;;;;;;-2.63;58.87;101142.63;10351876;28;20064;-79
2022/12/18 13:05:17;;;;;;;44.67;25.30;;;;;;;-2.86;59.10;101144.91;10350530;28;20061;-79
2022/12/18 13:10:25;;;;;;;45.70;25.60;;;;;;;-2.88;59.14;101140.59;10362155;28;21014;-79
2022/12/18 13:15:34;;;;;;;49.88;27.10;;;;;;;-3.00;59.86;101125.91;10369612;28;20045;-79
2022/12/18 13:20:58;;;;;;;48.25;27.25;;;;;;;-3.26;60.17;101121.28;10369343;28;20061;-78
2022/12/18 13:26:10;;;;;;;49.97;27.83;;;;;;;-3.31;60.48;101128.88;10365650;28;20058;-79
2022/12/18 13:31:40;;;;;;;49.45;28.15;;;;;;;-3.28;60.59;101120.41;10359980;28;20068;-79
2022/12/18 13:36:42;;;;;;;54.90;29.98;;;;;;;-3.37;60.88;101126.25;10366923;28;20057;-78
2022/12/18 13:41:48;;;;;;;52.92;29.75;;;;;;;-3.37;60.85;101125.38;10369563;28;20822;-79
2022/12/18 13:46:52;;;;;;;55.33;29.58;;;;;;;-3.23;60.83;101119.63;10369986;28;20072;-79
2022/12/18 13:51:56;;;;;;;56.03;30.23;;;;;;;-3.21;60.79;101117.09;10367645;28;20418;-79
2022/12/18 13:57:00;;;;;;;57.35;31.42;;;;;;;-3.51;61.00;101120.06;10350961;28;20432;-79
2022/12/18 14:02:13;;;;;;;56.63;30.70;;;;;;;-3.69;61.26;101115.47;10335357;28;20061;-79
2022/12/18 14:07:19;;;;;;;60.83;31.77;;;;;;;-3.87;61.50;101121.97;10366169;28;20514;-78
2022/12/18 14:17:50;;;;;;;59.65;32.42;;;;;;;-4.08;61.53;101136.94;10366258;28;20062;-78
2022/12/18 14:22:52;;;;;;;68.13;33.20;;;;;;;-4.22;61.80;101138.38;10357406;28;20054;-78
2022/12/18 14:28:07;;;;;;;60.70;32.08;;;;;;;-4.23;61.61;101151.97;10366631;28;20045;-78
2022/12/18 14:33:20;;;;;;;58.28;30.50;;;;;;;-4.35;61.81;101147.50;10348104;28;20434;-78
2022/12/18 14:38:39;;;;;;;58.42;30.20;;;;;;;-4.44;61.92;101138.81;10366458;28;20049;-78
2022/12/18 14:43:44;;;;;;;58.53;31.08;;;;;;;-4.35;62.02;101128.75;10355660;28;20050;-79
2022/12/18 14:48:47;;;;;;;58.40;30.35;;;;;;;-4.36;61.87;101134.72;10351606;28;20058;-78
2022/12/18 14:54:14;;;;;;;58.70;30.65;;;;;;;-4.58;62.29;101128.28;10362213;28;20601;-78
2022/12/18 14:59:22;;;;;;;64.20;31.88;;;;;;;-4.72;62.36;101127.16;10365218;28;20069;-77
2022/12/18 15:04:30;;;;;;;61.72;32.25;;;;;;;-4.85;62.71;101123.47;10367818;28;20058;-78
2022/12/18 15:09:32;;;;;;;61.25;30.42;;;;;;;-4.90;62.65;101125.09;10375758;28;20719;-77
2022/12/18 15:14:40;;;;;;;61.50;30.17;;;;;;;-5.15;63.13;101129.59;10370846;28;20589;-77
2022/12/18 15:19:45;;;;;;;61.53;30.05;;;;;;;-5.29;63.11;101128.44;10374009;28;20407;-79
2022/12/18 15:24:47;;;;;;;68.25;33.17;;;;;;;-5.38;63.50;101122.28;10368423;28;20061;-78
2022/12/18 15:30:08;;;;;;;62.22;29.15;;;;;;;-5.53;64.15;101116.88;10370201;28;20072;-81
2022/12/18 15:35:25;;;;;;;66.22;30.08;;;;;;;-5.53;64.09;101121.97;10356841;28;20617;-79
2022/12/18 15:40:46;;;;;;;67.47;34.40;;;;;;;-5.38;63.64;101113.81;10344970;28;20172;-82
2022/12/18 15:46:11;;;;;;;62.80;31.23;;;;;;;-5.33;63.48;101106.25;10347113;28;20072;-86
2022/12/18 15:51:21;;;;;;;68.32;33.10;;;;;;;-5.26;63.25;101108.13;10370626;28;20144;-79
2022/12/18 16:01:47;;;;;;;65.68;31.23;;;;;;;-5.22;63.30;101112.47;10372236;28;20064;-79
2022/12/18 16:06:53;;;;;;;64.05;31.55;;;;;;;-5.27;63.55;101116.59;10371588;28;20119;-80
2022/12/18 16:12:22;;;;;;;66.00;30.17;;;;;;;-5.33;64.20;101108.78;10355035;28;20065;-79
2022/12/18 16:17:24;;;;;;;63.53;31.77;;;;;;;-5.13;63.51;101105.00;10371720;28;20687;-80
2022/12/18 16:22:28;;;;;;;70.85;32.97;;;;;;;-5.16;63.90;101105.81;10371484;28;20064;-79
2022/12/18 16:27:30;;;;;;;72.07;34.28;;;;;;;-5.05;63.85;101095.81;10364533;28;20050;-80
2022/12/18 16:32:33;;;;;;;94.68;45.10;;;;;;;-4.85;63.44;101092.88;10372362;28;20414;-80
2022/12/18 16:37:35;;;;;;;76.22;37.35;;;;;;;-4.72;63.24;101099.97;10355355;28;20870;-79
2022/12/18 16:42:40;;;;;;;68.45;33.75;;;;;;;-4.58;62.99;101090.00;10349159;28;20144;-79
2022/12/18 16:47:42;;;;;;;71.55;34.33;;;;;;;-4.50;62.84;101106.34;10355971;28;20069;-79
2022/12/18 16:52:44;;;;;;;69.30;32.83;;;;;;;-4.60;62.94;101096.78;10371642;28;20057;-79
2022/12/18 16:57:45;;;;;;;63.25;31.70;;;;;;;-4.60;62.94;101092.53;10354389;28;20703;-79
2022/12/18 17:02:47;;;;;;;70.50;32.50;;;;;;;-4.57;62.94;101084.97;10354624;28;20065;-79
2022/12/18 17:07:49;;;;;;;72.00;32.72;;;;;;;-4.64;62.77;101066.91;10368268;28;20056;-79
2022/12/18 17:12:51;;;;;;;67.68;32.22;;;;;;;-4.57;63.01;101059.44;10372231;28;20064;-79
2022/12/18 17:17:53;;;;;;;72.20;33.08;;;;;;;-4.60;63.18;101051.69;10373101;28;20495;-79
2022/12/18 17:22:57;;;;;;;71.70;33.83;;;;;;;-4.56;63.25;101045.81;10371264;28;20053;-80
2022/12/18 17:28:01;;;;;;;69.13;33.85;;;;;;;-4.52;63.33;101059.50;10352421;28;20542;-80
2022/12/18 17:33:03;;;;;;;73.00;34.45;;;;;;;-4.44;63.13;101060.50;10354095;28;20065;-79
2022/12/18 17:38:05;;;;;;;72.30;32.42;;;;;;;-4.47;63.01;101054.47;10364904;28;20061;-80
2022/12/18 17:43:08;;;;;;;63.00;31.50;;;;;;;-4.44;63.29;101050.28;10355220;28;20057;-79
2022/12/18 17:48:10;;;;;;;66.90;32.38;;;;;;;-4.53;63.10;101042.47;10374029;28;20050;-80
2022/12/18 17:53:16;;;;;;;68.13;33.05;;;;;;;-4.55;63.27;101044.13;10357576;28;20119;-79
2022/12/18 17:58:18;;;;;;;70.68;33.53;;;;;;;-4.48;63.37;101057.88;10353485;28;20448;-79
2022/12/18 18:03:20;;;;;;;75.03;34.83;;;;;;;-4.36;63.31;101058.94;10355640;28;20064;-80
2022/12/18 18:08:23;;;;;;;67.32;33.28;;;;;;;-4.35;63.21;101067.47;10354896;28;20128;-80
2022/12/18 18:18:47;;;;;;;65.13;31.48;;;;;;;-4.61;63.72;101041.47;10374246;28;20166;-79
2022/12/18 18:23:50;;;;;;;75.25;33.30;;;;;;;-4.52;63.56;101034.84;10361212;28;20057;-80
2022/12/18 18:28:54;;;;;;;75.13;34.72;;;;;;;-4.47;63.63;101034.94;10374943;28;20105;-79
2022/12/18 18:33:58;;;;;;;71.07;33.08;;;;;;;-4.41;63.82;101035.03;10360640;28;20499;-79
2022/12/18 18:39:01;;;;;;;81.55;35.67;;;;;;;-4.41;63.67;101022.28;10374389;28;20053;-79
2022/12/18 18:44:04;;;;;;;78.95;34.75;;;;;;;-4.51;64.06;101015.28;10378346;28;20112;-80
2022/12/18 18:49:07;;;;;;;73.68;35.80;;;;;;;-4.47;64.01;101006.84;10356584;28;20069;-80
2022/12/18 18:54:10;;;;;;;73.20;34.88;;;;;;;-4.38;63.91;100989.13;10357964;28;20065;-80
2022/12/18 18:59:14;;;;;;;76.38;35.08;;;;;;;-4.29;63.88;100979.06;10361532;28;20054;-84
2022/12/18 19:04:16;;;;;;;73.65;34.30;;;;;;;-4.30;63.88;100984.16;10377566;28;20072;-84
2022/12/18 19:09:22;;;;;;;74.28;34.50;;;;;;;-4.13;63.82;100983.59;10357109;28;20434;-79
2022/12/18 19:14:23;;;;;;;80.45;34.60;;;;;;;-4.28;63.71;100972.28;10354561;28;20053;-78
2022/12/18 19:19:26;;;;;;;83.35;39.00;;;;;;;-4.33;64.03;100979.00;10374129;28;20068;-78
2022/12/18 19:24:28;;;;;;;92.28;42.70;;;;;;;-4.20;64.02;100970.72;10370053;28;20081;-77
2022/12/18 19:29:29;;;;;;;73.53;34.58;;;;;;;-4.10;63.90;100968.34;10365152;28;20435;-78
2022/12/18 19:34:33;;;;;;;72.72;34.60;;;;;;;-3.99;63.83;100954.00;10356709;28;20057;-78
2022/12/18 19:39:35;;;;;;;73.35;34.53;;;;;;;-4.06;63.95;100947.09;10364831;28;20491;-77
2022/12/18 19:44:36;;;;;;;72.07;34.30;;;;;;;-3.98;64.04;100949.75;10370759;28;20129;-79
2022/12/18 19:49:38;;;;;;;71.60;33.80;;;;;;;-3.87;63.86;100951.63;10372021;28;20058;-79
2022/12/18 19:54:42;;;;;;;75.72;34.90;;;;;;;-3.71;63.60;100950.16;10358732;28;20578;-79
2022/12/18 19:59:44;;;;;;;66.78;33.35;;;;;;;-3.69;63.59;100951.06;10357969;28;20068;-79
2022/12/18 20:04:48;;;;;;;76.88;36.92;;;;;;;-3.70;63.70;100962.97;10356946;28;20124;-79
2022/12/18 20:09:50;;;;;;;66.30;34.00;;;;;;;-3.69;63.81;100968.94;10372818;28;20509;-79
2022/12/18 20:15:03;;;;;;;68.30;33.08;;;;;;;-3.48;63.57;100963.25;10371236;28;20062;-79
2022/12/18 20:20:05;;;;;;;69.07;33.45;;;;;;;-3.34;63.37;100965.13;10356380;28;20136;-79
2022/12/18 20:25:09;;;;;;;78.82;36.20;;;;;;;-3.38;63.38;100959.97;10372054;28;20862;-79
2022/12/18 20:30:12;;;;;;;70.63;32.97;;;;;;;-3.49;63.31;100957.28;10351629;28;20119;-79
2022/12/18 20:35:16;;;;;;;77.82;34.50;;;;;;;-3.58;63.60;100946.06;10355265;28;20081;-80
2022/12/18 20:40:19;;;;;;;68.20;33.42;;;;;;;-3.53;63.57;100923.97;10373262;28;20076;-79
2022/12/18 20:45:21;;;;;;;65.85;32.08;;;;;;;-3.49;63.62;100933.41;10373924;28;20042;-79
2022/12/18 20:50:23;;;;;;;65.68;31.77;;;;;;;-3.59;63.89;100942.66;10370013;28;20926;-80
2022/12/18 20:55:25;;;;;;;63.35;31.02;;;;;;;-3.50;63.93;100949.56;10374469;28;20042;-78
2022/12/18 21:00:27;;;;;;;64.40;32.33;;;;;;;-3.40;63.75;100936.94;10354548;28;20447;-78
2022/12/18 21:05:29;;;;;;;67.85;32.85;;;;;;;-3.49;63.97;100941.09;10353604;28;20064;-78
2022/12/18 21:10:32;;;;;;;67.25;32.67;;;;;;;-3.39;63.80;100937.81;10374898;28;20057;-78
2022/12/18 21:15:35;;;;;;;63.67;32.05;;;;;;;-3.37;63.94;100956.56;10372484;28;20053;-79
2022/12/18 21:20:37;;;;;;;68.45;32.90;;;;;;;-3.30;63.77;100943.00;10373150;28;20403;-80
2022/12/18 21:25:39;;;;;;;62.92;30.92;;;;;;;-3.33;64.03;100943.00;10355983;28;20061;-80
2022/12/18 21:30:40;;;;;;;67.90;33.38;;;;;;;-3.31;64.02;100943.88;10356053;28;20053;-79
2022/12/18 21:35:42;;;;;;;64.82;32.88;;;;;;;-3.32;63.95;100935.31;10354686;28;20143;-77
2022/12/18 21:40:44;;;;;;;68.40;32.70;;;;;;;-3.24;63.98;100946.50;10354550;28;20058;-80
2022/12/18 21:45:45;;;;;;;68.55;32.67;;;;;;;-3.13;63.83;100942.38;10366991;28;20083;-79
2022/12/18 21:50:47;;;;;;;66.63;32.40;;;;;;;-3.11;63.86;100940.69;10374855;28;20065;-80
2022/12/18 21:55:59;;;;;;;65.82;32.58;;;;;;;-3.06;63.79;100927.97;10353818;28;20538;-79
2022/12/18 22:01:00;;;;;;;67.80;33.53;;;;;;;-3.00;63.88;100928.88;10352773;28;20874;-77
2022/12/18 22:06:02;;;;;;;65.00;31.63;;;;;;;-3.06;63.77;100939.03;10352664;28;20073;-79
2022/12/18 22:11:11;;;;;;;69.70;32.78;;;;;;;-3.02;63.75;100942.50;10355268;28;20169;-79
2022/12/18 22:16:13;;;;;;;65.90;32.15;;;;;;;-2.96;63.69;100934.91;10354132;28;20144;-79
2022/12/18 22:21:33;;;;;;;64.43;31.77;;;;;;;-2.96;64.00;100930.63;10372165;28;20069;-79
2022/12/18 22:26:36;;;;;;;72.72;33.58;;;;;;;-2.95;63.88;100927.22;10369351;28;20054;-79
2022/12/18 22:31:41;;;;;;;66.55;32.63;;;;;;;-2.94;63.95;100921.25;10354905;28;20049;-80
2022/12/18 22:36:45;;;;;;;64.53;31.05;;;;;;;-2.88;63.75;100905.13;10354395;28;20525;-79
2022/12/18 22:41:47;;;;;;;63.78;32.67;;;;;;;-2.90;63.89;100899.97;10361017;28;20160;-79
2022/12/18 22:46:51;;;;;;;64.13;32.13;;;;;;;-2.85;63.95;100905.13;10355212;28;20676;-79
2022/12/18 22:52:08;;;;;;;64.28;31.88;;;;;;;-2.72;63.84;100899.31;10357098;28;20057;-79
2022/12/18 22:57:10;;;;;;;63.20;31.20;;;;;;;-2.67;63.60;100902.75;10363620;28;20057;-78
2022/12/18 23:02:11;;;;;;;64.40;32.13;;;;;;;-2.70;63.74;100902.75;10356731;28;20063;-80
2022/12/18 23:07:14;;;;;;;62.72;32.13;;;;;;;-2.54;63.44;100891.78;10377581;28;20050;-80
2022/12/18 23:12:17;;;;;;;67.07;34.28;;;;;;;-2.62;63.58;100885.75;10360519;28;20049;-80
2022/12/18 23:17:19;;;;;;;68.85;33.55;;;;;;;-2.66;63.69;100884.00;10367829;28;20495;-78
2022/12/18 23:22:20;;;;;;;66.13;32.53;;;;;;;-2.60;64.06;100873.81;10377886;28;20053;-79
2022/12/18 23:27:22;;;;;;;62.80;32.67;;;;;;;-2.52;63.77;100871.28;10376527;28;20522;-80
2022/12/18 23:32:24;;;;;;;65.97;32.35;;;;;;;-2.55;63.88;100861.03;10360788;28;20065;-79
2022/12/18 23:37:26;;;;;;;64.97;32.75;;;;;;;-2.42;64.06;100856.00;10360654;28;20054;-80
2022/12/18 23:42:47;;;;;;;;;;;;;;;-2.60;63.77;100855.88;10360193;28;20053;-79
2022/12/18 23:47:49;;;;;;;64.20;32.15;;;;;;;-2.46;63.95;100858.53;10374940;28;19930;-80